CW0728 Weather Reports


Display with metric or nautical units.
time (UTC)temp
F
wind
direction
speed
MPH
gust
MPH
rain 1hr
in
rain 24hr
in
rain mn
in
humidity
%
barometer
mb
20210617234637 67 198 0.0 3.0 0.00 0.00 0.00 61 1009.9
20210617234137 67 210 2.0 3.0 0.00 0.00 0.00 60 1009.9
20210617233637 67 165 1.0 3.0 0.00 0.00 0.00 59 1009.9
20210617233137 68 143 1.0 4.0 0.00 0.00 0.00 58 1009.7
20210617232637 68 175 1.0 3.0 0.00 0.00 0.00 58 1009.7
20210617232136 69 195 1.0 3.0 0.00 0.00 0.00 56 1009.7
20210617231637 69 188 2.0 4.0 0.00 0.00 0.00 55 1009.6
20210617230636 70 199 2.0 3.0 0.00 0.00 0.00 54 1009.6
20210617230136 70 161 2.0 5.0 0.00 0.00 0.00 54 1009.5
20210617225637 70 199 2.0 5.0 0.00 0.00 0.00 52 1009.5
20210617225137 71 200 3.0 5.0 0.00 0.00 0.00 51 1009.5
20210617223137 73 147 1.0 7.0 0.00 0.00 0.00 48 1009.2
20210617222636 74 168 1.0 6.0 0.00 0.00 0.00 45 1009.2
20210617222136 74 154 3.0 3.0 0.00 0.00 0.00 44 1009.2
20210617221136 74 161 3.0 4.0 0.00 0.00 0.00 41 1009.0
20210617220637 74 212 1.0 3.0 0.00 0.00 0.00 42 1009.0
20210617220136 75 147 1.0 4.0 0.00 0.00 0.00 41 1009.0
20210617215636 75 143 2.0 4.0 0.00 0.00 0.00 42 1009.0
20210617212636 78 95 1.0 5.0 0.00 0.00 0.00 39 1008.8
20210617212136 79 167 2.0 5.0 0.00 0.00 0.00 36 1008.8
20210617211137 79 85 3.0 5.0 0.00 0.00 0.00 34 1008.6
20210617210136 81 117 2.0 5.0 0.00 0.00 0.00 28 1008.7
20210617205636 81 353 1.0 5.0 0.00 0.00 0.00 30 1008.7
20210617204636 81 244 2.0 6.0 0.00 0.00 0.00 23 1008.7
20210617204137 81 275 2.0 6.0 0.00 0.00 0.00 22 1008.7
20210617203637 81 241 0.0 6.0 0.00 0.00 0.00 23 1008.7
20210617203136 82 23 0.0 5.0 0.00 0.00 0.00 23 1008.5
20210617201636 80 31 4.0 10.0 0.00 0.00 0.00 26 1008.5
20210617200636 80 261 3.0 10.0 0.00 0.00 0.00 24 1008.5
20210617195136 80 284 4.0 6.0 0.00 0.00 0.00 25 1008.4
20210617194636 80 253 6.0 6.0 0.00 0.00 0.00 25 1008.4
20210617194136 80 212 1.0 5.0 0.00 0.00 0.00 23 1008.4
20210617193136 80 257 3.0 7.0 0.00 0.00 0.00 25 1008.5
20210617191637 80 6 1.0 5.0 0.00 0.00 0.00 25 1008.4
20210617191136 80 23 2.0 5.0 0.00 0.00 0.00 27 1008.4
20210617190636 80 40 2.0 5.0 0.00 0.00 0.00 26 1008.4
20210617190136 80 296 2.0 7.0 0.00 0.00 0.00 26 1008.4
20210617185636 79 250 2.0 7.0 0.00 0.00 0.00 24 1008.4
20210617185136 79 329 3.0 7.0 0.00 0.00 0.00 27 1008.4
20210617184136 78 175 1.0 6.0 0.00 0.00 0.00 26 1008.6
20210617183636 78 37 5.0 6.0 0.00 0.00 0.00 27 1008.6
20210617182636 77 243 6.0 10.0 0.00 0.00 0.00 27 1008.7
20210617181636 77 312 5.0 7.0 0.00 0.00 0.00 27 1008.9
20210617180136 77 306 3.0 11.0 0.00 0.00 0.00 27 1008.9
20210617175636 77 315 2.0 11.0 0.00 0.00 0.00 28 1008.9
20210617174636 77 256 2.0 10.0 0.00 0.00 0.00 28 1009.2
20210617173636 77 0 2.0 4.0 0.00 0.00 0.00 26 1009.2
20210617173136 78 126 2.0 7.0 0.00 0.00 0.00 27 1009.1
20210617172636 77 248 3.0 5.0 0.00 0.00 0.00 29 1009.1
20210617171136 76 323 4.0 10.0 0.00 0.00 0.00 29 1009.1
20210617165636 76 332 1.0 5.0 0.00 0.00 0.00 30 1009.2
20210617164636 76 0 2.0 7.0 0.00 0.00 0.00 31 1009.3
20210617164136 76 263 5.0 7.0 0.00 0.00 0.00 31 1009.3
20210617162636 75 51 1.0 8.0 0.00 0.00 0.00 30 1009.3
20210617161636 76 0 2.0 6.0 0.00 0.00 0.00 31 1009.4
20210617161136 76 304 3.0 6.0 0.00 0.00 0.00 32 1009.4
20210617160136 76 305 7.0 10.0 0.00 0.00 0.00 32 1009.4
20210617154636 75 346 4.0 9.0 0.00 0.00 0.00 29 1009.5
20210617153636 74 58 4.0 9.0 0.00 0.00 0.00 30 1009.5
20210617153136 74 354 1.0 5.0 0.00 0.00 0.00 29 1009.5
20210617152136 73 292 3.0 5.0 0.00 0.00 0.00 28 1009.5
20210617151636 74 51 3.0 10.0 0.00 0.00 0.00 29 1009.4
20210617143636 72 237 6.0 6.0 0.00 0.00 0.00 34 1009.7
20210617143136 72 260 5.0 9.0 0.00 0.00 0.00 35 1009.8
20210617140636 71 280 2.0 5.0 0.00 0.00 0.00 36 1009.9
20210617140136 70 265 2.0 10.0 0.00 0.00 0.00 38 1009.8
20210617135136 70 230 3.0 5.0 0.00 0.00 0.00 42 1009.8
20210617134636 69 0 3.0 10.0 0.00 0.00 0.00 43 1009.8
20210617134136 69 193 6.0 7.0 0.00 0.00 0.00 43 1009.8
20210617133136 69 267 3.0 6.0 0.00 0.00 0.00 45 1010.0
20210617131636 67 3 2.0 6.0 0.00 0.00 0.00 48 1010.0
20210617130136 66 329 1.0 6.0 0.00 0.00 0.00 51 1010.0
20210617125636 66 239 5.0 6.0 0.00 0.00 0.00 54 1010.0
20210617123636 65 304 2.0 3.0 0.00 0.00 0.00 56 1009.9
20210617123136 64 311 2.0 6.0 0.00 0.00 0.00 55 1009.7
20210617122636 64 229 3.0 6.0 0.00 0.00 0.00 56 1009.7
20210617120636 62 241 0.0 5.0 0.00 0.00 0.00 60 1009.6
20210617115636 61 247 3.0 3.0 0.00 0.00 0.00 62 1009.6
20210617114136 60 343 1.0 4.0 0.00 0.00 0.00 65 1009.5
20210617113136 59 323 1.0 5.0 0.00 0.00 0.00 65 1009.4
20210617112136 58 336 0.0 5.0 0.00 0.00 0.00 66 1009.4
20210617110636 57 244 0.0 4.0 0.00 0.00 0.00 69 1009.3
20210617105636 56 241 1.0 4.0 0.00 0.00 0.00 71 1009.2
20210617104636 56 254 0.0 3.0 0.00 0.00 0.00 71 1009.2
20210617103136 54 333 0.0 2.0 0.00 0.00 0.00 75 1009.2
20210617102136 53 335 0.0 0.0 0.00 0.00 0.00 77 1009.2
20210617101636 53 335 0.0 2.0 0.00 0.00 0.00 78 1009.1
20210617101136 52 335 0.0 2.0 0.00 0.00 0.00 79 1009.1
20210617100136 51 302 0.0 2.0 0.00 0.00 0.00 80 1009.1
20210617095636 51 308 0.0 2.0 0.00 0.00 0.00 80 1009.1
20210617094636 50 0 0.0 2.0 0.00 0.00 0.00 81 1009.1
20210617094136 50 0 0.0 2.0 0.00 0.00 0.00 82 1009.1
20210617093636 50 0 2.0 2.0 0.00 0.00 0.00 82 1009.1
20210617092636 50 16 0.0 0.0 0.00 0.00 0.00 83 1009.0
20210617091136 50 16 0.0 0.0 0.00 0.00 0.00 82 1009.0
20210617090136 50 16 0.0 1.0 0.00 0.00 0.00 82 1009.0
20210617085636 50 16 0.0 1.0 0.00 0.00 0.00 81 1009.0
20210617085136 50 16 0.0 1.0 0.00 0.00 0.00 81 1009.0
20210617084636 50 16 0.0 1.0 0.00 0.00 0.00 81 1009.0
20210617083136 50 16 0.0 2.0 0.00 0.00 0.00 81 1008.9
20210617082636 50 16 1.0 2.0 0.00 0.00 0.00 82 1008.9
20210617082136 50 20 0.0 1.0 0.00 0.00 0.00 82 1008.9
20210617081636 50 20 1.0 1.0 0.00 0.00 0.00 82 1008.8
20210617081136 50 20 1.0 1.0 0.00 0.00 0.00 82 1008.8
20210617080136 50 20 0.0 1.0 0.00 0.00 0.00 82 1008.7
20210617075636 50 20 0.0 1.0 0.00 0.00 0.00 82 1008.7
20210617074136 50 20 0.0 1.0 0.00 0.00 0.00 83 1008.7
20210617073636 50 20 0.0 1.0 0.00 0.00 0.00 82 1008.7
20210617073136 50 20 0.0 0.0 0.00 0.00 0.00 81 1008.7
20210617072636 50 20 0.0 0.0 0.00 0.00 0.00 79 1008.7
20210617071636 50 20 0.0 0.0 0.00 0.00 0.00 78 1008.7
20210617070636 50 20 0.0 0.0 0.00 0.00 0.00 77 1008.7
20210617065136 51 20 0.0 0.0 0.00 0.00 0.00 77 1008.7
20210617063136 52 20 0.0 0.0 0.00 0.00 0.00 76 1008.7
20210617061136 53 20 0.0 0.0 0.00 0.00 0.00 73 1008.6
20210617060136 53 20 0.0 0.0 0.00 0.00 0.00 71 1008.6
20210617055136 54 20 0.0 0.0 0.00 0.00 0.00 70 1008.6
20210617054636 54 20 0.0 1.0 0.00 0.00 0.00 69 1008.7
20210617054136 54 20 0.0 1.0 0.00 0.00 0.00 69 1008.7
20210617053136 55 37 0.0 1.0 0.00 0.00 0.00 68 1008.6
20210617052636 55 37 0.0 1.0 0.00 0.00 0.00 67 1008.6
20210617052136 55 37 0.0 1.0 0.00 0.00 0.00 66 1008.6
20210617051636 56 37 1.0 4.0 0.00 0.00 0.00 65 1008.7
20210617050636 56 335 0.0 1.0 0.00 0.00 0.00 63 1008.7
20210617045636 56 335 1.0 3.0 0.00 0.00 0.00 63 1008.6
20210617045136 56 347 0.0 3.0 0.00 0.00 0.00 63 1008.6
20210617044636 57 301 0.0 5.0 0.00 0.00 0.00 63 1008.7
20210617044136 57 304 1.0 5.0 0.00 0.00 0.00 62 1008.7
20210617043636 57 275 1.0 5.0 0.00 0.00 0.00 63 1008.7
20210617043136 57 308 1.0 3.0 0.00 0.00 0.00 63 1008.7
20210617041636 57 302 0.0 3.0 0.00 0.00 0.00 64 1008.7
20210617040636 57 316 0.0 3.0 0.00 0.00 0.00 64 1008.7
20210617040136 57 318 1.0 3.0 0.00 0.00 0.00 64 1008.6
20210617035636 57 315 0.0 3.0 0.00 0.00 0.00 64 1008.6
20210617035136 57 315 1.0 2.0 0.00 0.00 0.00 65 1008.6
20210617034636 57 313 0.0 2.0 0.00 0.01 0.00 65 1008.6
20210617034136 57 315 2.0 2.0 0.00 0.01 0.00 64 1008.6
20210617033636 57 311 1.0 2.0 0.00 0.01 0.00 64 1008.6
20210617033136 58 311 2.0 2.0 0.00 0.01 0.00 64 1008.6
20210617032136 58 311 0.0 2.0 0.00 0.01 0.00 63 1008.6
20210617031636 58 308 0.0 2.0 0.00 0.01 0.00 63 1008.6
20210617030636 59 308 1.0 1.0 0.00 0.01 0.00 62 1008.6
20210617025636 59 308 0.0 2.0 0.00 0.01 0.00 61 1008.6
20210617025136 60 308 0.0 2.0 0.00 0.01 0.00 60 1008.6
20210617024636 60 308 0.0 3.0 0.00 0.01 0.00 60 1008.4
20210617024136 60 308 0.0 3.0 0.00 0.01 0.00 59 1008.4
20210617022636 60 308 1.0 2.0 0.00 0.01 0.00 59 1008.3
20210617022136 61 305 1.0 2.0 0.00 0.01 0.00 58 1008.3
20210617021636 61 287 1.0 3.0 0.00 0.01 0.00 58 1008.2
20210617015136 61 333 2.0 4.0 0.00 0.01 0.00 59 1008.1
20210617013636 62 294 1.0 2.0 0.00 0.01 0.00 58 1008.0
20210617012636 62 294 1.0 2.0 0.00 0.01 0.00 58 1007.8
20210617012136 62 294 0.0 2.0 0.00 0.01 0.00 57 1007.8
20210617011636 62 294 0.0 2.0 0.00 0.01 0.00 57 1007.5
20210617011136 63 294 1.0 2.0 0.00 0.01 0.00 56 1007.5
20210617010636 63 295 0.0 0.0 0.00 0.01 0.00 56 1007.5
20210617010136 63 295 0.0 0.0 0.00 0.01 0.00 55 1007.2
20210617004136 65 295 0.0 0.0 0.00 0.01 0.00 53 1007.1
20210617003636 65 295 0.0 0.0 0.00 0.01 0.00 51 1007.1
20210617002636 66 295 0.0 0.0 0.00 0.01 0.00 49 1006.9
20210617001136 67 295 0.0 1.0 0.00 0.01 0.00 45 1006.6
20210617000636 68 295 0.0 1.0 0.00 0.01 0.00 43 1006.6
20210616235636 69 294 0.0 2.0 0.00 0.01 0.00 42 1006.5